Etusivu
METAR-TAF:

METAR-TAF

Lentoasemat :

Claremore, Oklahoma, Yhdysvallat

Leveyspiiri: 36-17-40N, Pituuspiiri: 095-28-47W, korkeus merenpinnasta: 221 m

Tämänhetkinen sää

Tämä raportti tehtiin 46 minuuttia sitten, kello 15.55 UTC
Tuuli 10 kn etelästä/lounaasta
Lämpötila 30°C
Kosteus 75%
Ilmanpaine 1016 hPa
Näkyvyys: 16.1 km
selkeää

METAR: KGCM 141555Z AUTO 20010KT 10SM CLR 30/25 A3000 RMK AO2 TSNO

Aika: 11:41 (16:41 UTC)


TAF: puuttuu

Säähavainnot ja -ennusteet yli 4000 lentoasemalta (METAR- ja TAF-raportit).

Käytössä olevat sääasemat on merkitty karttaan keltaisilla ja punaisilla pisteillä.

Aseta hiiri pisteen päälle nähdäksesi sääaseman nimen.

Klikkaa sitten nähdäksesi säähavainnot ja -ennusteet.

Kartan vaihtaminen: klikkaa mustalla rastilla varustettuja vihreitä pisteitä, niin voit zoomata sisään; viivalla varustettua vihreää pistettä, niin voit zoomata ulos tai vihreitä nuolia, niin pääset viereisille kartoille.


METAR-TAF: